KCHS/CHS METAR and TAF weather

Enter ICAO airport designator
Station Type Date Time Source
KCHS METAR 2021/07/26 16:56 UTC NOAA

KCHS 261656Z 02009KT 10SM R15/3500VP6000FT -RA SCT025 BKN045 OVC055 27/25 A2998 RMK AO2 RAB15 SLP153 P0000 T02720250


Station Type Date Time Source
KCHS Decoded METAR 2021/07/26 16:56 UTC NOAA

CHARLESTON INT'L AIRPORT, SC, United States (KCHS) 32-54N 080-02W 13M
Jul 26, 2021 - 12:56 PM EDT / 2021.07.26 1656 UTC
Wind: from the NNE (020 degrees) at 10 MPH (9 KT):0
Visibility: 10 mile(s):0
Sky conditions: overcast
Weather: light rain
Precipitation last hour: A trace
Temperature: 81.0 F (27.2 C)
Dew Point: 77.0 F (25.0 C)
Relative Humidity: 87%
Pressure (altimeter): 29.98 in. Hg (1015 hPa)
ob: KCHS 261656Z 02009KT 10SM R15/3500VP6000FT -RA SCT025 BKN045 OVC055 27/25 A2998 RMK AO2 RAB15 SLP153 P0000 T02720250
cycle: 17

Station Type Date Time Source
KCHS TAF 2021/07/26 14:12 UTC NOAA

TAF
AMD KCHS 261403Z 2614/2712 09006KT P6SM VCSH SCT020 BKN040
TEMPO 2614/2615 3SM SHRA SCT010 BKN018
FM261600 13009KT P6SM VCSH SCT025 BKN050
FM270000 14007KT P6SM FEW030 SCT060 BKN250

Example: see airport list